sensor_id;sensor_type;location;lat;lon;timestamp;temperature;humidity
2907;DHT22;1463;51.070;16.998;2023-04-03T00:02:19;4.50;99.90
2907;DHT22;1463;51.070;16.998;2023-04-03T00:04:47;4.40;99.90
2907;DHT22;1463;51.070;16.998;2023-04-03T00:07:14;4.30;99.90
2907;DHT22;1463;51.070;16.998;2023-04-03T00:09:41;4.40;99.90
2907;DHT22;1463;51.070;16.998;2023-04-03T00:12:09;4.40;99.90
2907;DHT22;1463;51.070;16.998;2023-04-03T00:14:36;4.40;99.90
2907;DHT22;1463;51.070;16.998;2023-04-03T00:17:04;4.40;99.90
2907;DHT22;1463;51.070;16.998;2023-04-03T00:19:33;4.30;99.90
2907;DHT22;1463;51.070;16.998;2023-04-03T00:22:00;4.30;99.90
2907;DHT22;1463;51.070;16.998;2023-04-03T00:24:28;4.30;99.90
2907;DHT22;1463;51.070;16.998;2023-04-03T00:26:55;4.30;99.90
2907;DHT22;1463;51.070;16.998;2023-04-03T00:29:23;4.10;99.90
2907;DHT22;1463;51.070;16.998;2023-04-03T00:31:50;4.20;99.90
2907;DHT22;1463;51.070;16.998;2023-04-03T00:34:18;4.20;99.90
2907;DHT22;1463;51.070;16.998;2023-04-03T00:36:47;4.10;99.90
2907;DHT22;1463;51.070;16.998;2023-04-03T00:39:14;4.10;99.90
2907;DHT22;1463;51.070;16.998;2023-04-03T00:41:42;4.10;99.90
2907;DHT22;1463;51.070;16.998;2023-04-03T00:44:23;4.10;99.90
2907;DHT22;1463;51.070;16.998;2023-04-03T00:47:12;4.00;99.90
2907;DHT22;1463;51.070;16.998;2023-04-03T00:49:40;4.20;99.90
2907;DHT22;1463;51.070;16.998;2023-04-03T00:52:14;4.20;99.90
2907;DHT22;1463;51.070;16.998;2023-04-03T00:54:44;4.00;99.90
2907;DHT22;1463;51.070;16.998;2023-04-03T00:57:13;4.00;99.90
2907;DHT22;1463;51.070;16.998;2023-04-03T00:59:44;4.00;99.90
2907;DHT22;1463;51.070;16.998;2023-04-03T01:02:12;4.00;99.90
2907;DHT22;1463;51.070;16.998;2023-04-03T01:04:46;4.00;99.90
2907;DHT22;1463;51.070;16.998;2023-04-03T01:07:17;4.00;99.90
2907;DHT22;1463;51.070;16.998;2023-04-03T01:09:47;4.00;99.90
2907;DHT22;1463;51.070;16.998;2023-04-03T01:12:16;3.90;99.90
2907;DHT22;1463;51.070;16.998;2023-04-03T01:14:44;4.00;99.90
2907;DHT22;1463;51.070;16.998;2023-04-03T01:17:31;4.00;99.90
2907;DHT22;1463;51.070;16.998;2023-04-03T01:23:10;3.80;99.90
2907;DHT22;1463;51.070;16.998;2023-04-03T01:25:42;3.70;99.90
2907;DHT22;1463;51.070;16.998;2023-04-03T01:28:12;3.70;99.90
2907;DHT22;1463;51.070;16.998;2023-04-03T01:30:45;3.70;99.90
2907;DHT22;1463;51.070;16.998;2023-04-03T01:33:16;3.80;99.90
2907;DHT22;1463;51.070;16.998;2023-04-03T01:35:43;3.80;99.90
2907;DHT22;1463;51.070;16.998;2023-04-03T01:38:11;3.80;99.90
2907;DHT22;1463;51.070;16.998;2023-04-03T01:40:38;3.80;99.90
2907;DHT22;1463;51.070;16.998;2023-04-03T01:43:05;3.80;99.90
2907;DHT22;1463;51.070;16.998;2023-04-03T01:45:33;3.70;99.90
2907;DHT22;1463;51.070;16.998;2023-04-03T01:48:00;3.70;99.90
2907;DHT22;1463;51.070;16.998;2023-04-03T01:50:29;3.60;99.90
2907;DHT22;1463;51.070;16.998;2023-04-03T01:52:57;3.60;99.90
2907;DHT22;1463;51.070;16.998;2023-04-03T01:55:25;3.70;99.90
2907;DHT22;1463;51.070;16.998;2023-04-03T01:57:52;3.60;99.90
2907;DHT22;1463;51.070;16.998;2023-04-03T02:00:20;3.60;99.90
2907;DHT22;1463;51.070;16.998;2023-04-03T02:02:47;3.60;99.90
2907;DHT22;1463;51.070;16.998;2023-04-03T02:05:15;3.50;99.90
2907;DHT22;1463;51.070;16.998;2023-04-03T02:07:44;3.50;99.90
2907;DHT22;1463;51.070;16.998;2023-04-03T02:10:11;3.70;99.90
2907;DHT22;1463;51.070;16.998;2023-04-03T02:12:39;3.60;99.90
2907;DHT22;1463;51.070;16.998;2023-04-03T02:15:07;3.50;99.90
2907;DHT22;1463;51.070;16.998;2023-04-03T02:17:35;3.50;99.90
2907;DHT22;1463;51.070;16.998;2023-04-03T02:20:03;3.60;99.90
2907;DHT22;1463;51.070;16.998;2023-04-03T02:22:31;3.60;99.90
2907;DHT22;1463;51.070;16.998;2023-04-03T02:25:00;3.70;99.90
2907;DHT22;1463;51.070;16.998;2023-04-03T02:27:27;3.70;99.90
2907;DHT22;1463;51.070;16.998;2023-04-03T02:29:55;3.70;99.90
2907;DHT22;1463;51.070;16.998;2023-04-03T02:32:22;3.60;99.90
2907;DHT22;1463;51.070;16.998;2023-04-03T02:34:50;3.40;99.90
2907;DHT22;1463;51.070;16.998;2023-04-03T02:37:17;3.40;99.90
2907;DHT22;1463;51.070;16.998;2023-04-03T02:39:45;3.40;99.90
2907;DHT22;1463;51.070;16.998;2023-04-03T02:42:14;3.30;99.90
2907;DHT22;1463;51.070;16.998;2023-04-03T02:44:41;3.30;99.90
2907;DHT22;1463;51.070;16.998;2023-04-03T02:47:08;3.20;99.90
2907;DHT22;1463;51.070;16.998;2023-04-03T02:49:36;3.20;99.90
2907;DHT22;1463;51.070;16.998;2023-04-03T02:52:04;3.20;99.90
2907;DHT22;1463;51.070;16.998;2023-04-03T02:54:31;3.20;99.90
2907;DHT22;1463;51.070;16.998;2023-04-03T02:56:58;3.00;99.90
2907;DHT22;1463;51.070;16.998;2023-04-03T02:59:28;3.10;99.90
2907;DHT22;1463;51.070;16.998;2023-04-03T03:01:57;3.10;99.90
2907;DHT22;1463;51.070;16.998;2023-04-03T03:04:25;3.00;99.90
2907;DHT22;1463;51.070;16.998;2023-04-03T03:06:52;3.00;99.90
2907;DHT22;1463;51.070;16.998;2023-04-03T03:09:20;3.00;99.90
2907;DHT22;1463;51.070;16.998;2023-04-03T03:11:49;2.90;99.90
2907;DHT22;1463;51.070;16.998;2023-04-03T03:14:17;2.90;99.90
2907;DHT22;1463;51.070;16.998;2023-04-03T03:16:45;2.90;99.90
2907;DHT22;1463;51.070;16.998;2023-04-03T03:19:13;2.90;99.90
2907;DHT22;1463;51.070;16.998;2023-04-03T03:21:42;2.90;99.90
2907;DHT22;1463;51.070;16.998;2023-04-03T03:24:09;2.80;99.90
2907;DHT22;1463;51.070;16.998;2023-04-03T03:26:38;2.80;99.90
2907;DHT22;1463;51.070;16.998;2023-04-03T03:29:07;2.80;99.90
2907;DHT22;1463;51.070;16.998;2023-04-03T03:31:35;2.80;99.90
2907;DHT22;1463;51.070;16.998;2023-04-03T03:34:04;2.60;99.90
2907;DHT22;1463;51.070;16.998;2023-04-03T03:36:31;2.60;99.90
2907;DHT22;1463;51.070;16.998;2023-04-03T03:38:59;2.60;99.90
2907;DHT22;1463;51.070;16.998;2023-04-03T03:41:26;2.50;99.90
2907;DHT22;1463;51.070;16.998;2023-04-03T03:43:54;2.60;99.90
2907;DHT22;1463;51.070;16.998;2023-04-03T03:46:21;2.70;99.90
2907;DHT22;1463;51.070;16.998;2023-04-03T03:48:49;2.70;99.90
2907;DHT22;1463;51.070;16.998;2023-04-03T03:51:18;2.70;99.90
2907;DHT22;1463;51.070;16.998;2023-04-03T03:53:45;2.60;99.90
2907;DHT22;1463;51.070;16.998;2023-04-03T03:56:12;2.50;99.90
2907;DHT22;1463;51.070;16.998;2023-04-03T03:58:40;2.50;99.90
2907;DHT22;1463;51.070;16.998;2023-04-03T04:01:07;2.40;99.90
2907;DHT22;1463;51.070;16.998;2023-04-03T04:03:35;2.50;99.90
2907;DHT22;1463;51.070;16.998;2023-04-03T04:06:03;2.60;99.90
2907;DHT22;1463;51.070;16.998;2023-04-03T04:08:32;2.60;99.90
2907;DHT22;1463;51.070;16.998;2023-04-03T04:10:59;2.50;99.90
2907;DHT22;1463;51.070;16.998;2023-04-03T04:13:27;2.60;99.90
2907;DHT22;1463;51.070;16.998;2023-04-03T04:15:54;2.40;99.90
2907;DHT22;1463;51.070;16.998;2023-04-03T04:18:21;2.30;99.90
2907;DHT22;1463;51.070;16.998;2023-04-03T04:20:49;2.40;99.90
2907;DHT22;1463;51.070;16.998;2023-04-03T04:23:17;2.30;99.90
2907;DHT22;1463;51.070;16.998;2023-04-03T04:25:46;2.30;99.90
2907;DHT22;1463;51.070;16.998;2023-04-03T04:28:14;2.50;99.90
2907;DHT22;1463;51.070;16.998;2023-04-03T04:30:42;2.50;99.90
2907;DHT22;1463;51.070;16.998;2023-04-03T04:33:09;2.40;99.90
2907;DHT22;1463;51.070;16.998;2023-04-03T04:35:37;2.40;99.90
2907;DHT22;1463;51.070;16.998;2023-04-03T04:38:04;2.50;99.90
2907;DHT22;1463;51.070;16.998;2023-04-03T04:40:34;2.50;99.90
2907;DHT22;1463;51.070;16.998;2023-04-03T04:43:04;2.60;99.90
2907;DHT22;1463;51.070;16.998;2023-04-03T04:45:32;2.70;99.90
2907;DHT22;1463;51.070;16.998;2023-04-03T04:47:59;2.70;99.90
2907;DHT22;1463;51.070;16.998;2023-04-03T04:50:27;2.70;99.90
2907;DHT22;1463;51.070;16.998;2023-04-03T04:52:54;2.70;99.90
2907;DHT22;1463;51.070;16.998;2023-04-03T04:55:21;2.90;99.90
2907;DHT22;1463;51.070;16.998;2023-04-03T04:57:49;2.90;99.90
2907;DHT22;1463;51.070;16.998;2023-04-03T05:00:19;2.90;99.90
2907;DHT22;1463;51.070;16.998;2023-04-03T05:02:46;2.90;99.90
2907;DHT22;1463;51.070;16.998;2023-04-03T05:05:14;2.80;99.90
2907;DHT22;1463;51.070;16.998;2023-04-03T05:07:41;2.90;99.90
2907;DHT22;1463;51.070;16.998;2023-04-03T05:10:12;2.90;99.90
2907;DHT22;1463;51.070;16.998;2023-04-03T05:12:39;2.80;99.90
2907;DHT22;1463;51.070;16.998;2023-04-03T05:15:08;2.80;99.90
2907;DHT22;1463;51.070;16.998;2023-04-03T05:17:37;2.80;99.90
2907;DHT22;1463;51.070;16.998;2023-04-03T05:20:06;2.80;99.90
2907;DHT22;1463;51.070;16.998;2023-04-03T05:22:34;2.80;99.90
2907;DHT22;1463;51.070;16.998;2023-04-03T05:25:02;2.90;99.90
2907;DHT22;1463;51.070;16.998;2023-04-03T05:27:29;2.90;99.90
2907;DHT22;1463;51.070;16.998;2023-04-03T05:29:56;2.80;99.90
2907;DHT22;1463;51.070;16.998;2023-04-03T05:32:25;2.80;99.90
2907;DHT22;1463;51.070;16.998;2023-04-03T05:34:54;2.90;99.90
2907;DHT22;1463;51.070;16.998;2023-04-03T05:37:22;2.90;99.90
2907;DHT22;1463;51.070;16.998;2023-04-03T05:39:50;2.90;99.90
2907;DHT22;1463;51.070;16.998;2023-04-03T05:42:17;3.00;99.90
2907;DHT22;1463;51.070;16.998;2023-04-03T05:44:45;2.90;99.90
2907;DHT22;1463;51.070;16.998;2023-04-03T05:47:13;2.90;99.90
2907;DHT22;1463;51.070;16.998;2023-04-03T05:49:40;3.00;99.90
2907;DHT22;1463;51.070;16.998;2023-04-03T05:52:20;3.00;99.90
2907;DHT22;1463;51.070;16.998;2023-04-03T05:54:48;3.00;99.90
2907;DHT22;1463;51.070;16.998;2023-04-03T05:57:16;3.10;99.90
2907;DHT22;1463;51.070;16.998;2023-04-03T05:59:44;3.20;99.90
2907;DHT22;1463;51.070;16.998;2023-04-03T06:02:13;3.20;99.90
2907;DHT22;1463;51.070;16.998;2023-04-03T06:04:41;3.30;99.90
2907;DHT22;1463;51.070;16.998;2023-04-03T06:07:12;3.20;99.90
2907;DHT22;1463;51.070;16.998;2023-04-03T06:09:41;3.10;99.90
2907;DHT22;1463;51.070;16.998;2023-04-03T06:12:09;3.00;99.90
2907;DHT22;1463;51.070;16.998;2023-04-03T06:14:37;3.10;99.90
2907;DHT22;1463;51.070;16.998;2023-04-03T06:17:04;3.20;99.90
2907;DHT22;1463;51.070;16.998;2023-04-03T06:19:32;3.20;99.90
2907;DHT22;1463;51.070;16.998;2023-04-03T06:22:00;3.20;99.90
2907;DHT22;1463;51.070;16.998;2023-04-03T06:24:30;3.20;99.90
2907;DHT22;1463;51.070;16.998;2023-04-03T06:26:58;3.30;99.90
2907;DHT22;1463;51.070;16.998;2023-04-03T06:29:26;3.30;99.90
2907;DHT22;1463;51.070;16.998;2023-04-03T06:31:53;3.30;99.90
2907;DHT22;1463;51.070;16.998;2023-04-03T06:34:21;3.40;99.90
2907;DHT22;1463;51.070;16.998;2023-04-03T06:36:48;3.50;99.90
2907;DHT22;1463;51.070;16.998;2023-04-03T06:39:18;3.60;99.90
2907;DHT22;1463;51.070;16.998;2023-04-03T06:41:49;3.60;99.90
2907;DHT22;1463;51.070;16.998;2023-04-03T06:44:17;3.50;99.90
2907;DHT22;1463;51.070;16.998;2023-04-03T06:46:45;3.70;99.90
2907;DHT22;1463;51.070;16.998;2023-04-03T06:49:13;3.60;99.90
2907;DHT22;1463;51.070;16.998;2023-04-03T06:51:40;3.70;99.90
2907;DHT22;1463;51.070;16.998;2023-04-03T06:54:08;3.70;99.90
2907;DHT22;1463;51.070;16.998;2023-04-03T06:56:36;3.80;99.90
2907;DHT22;1463;51.070;16.998;2023-04-03T06:59:05;3.80;99.90
2907;DHT22;1463;51.070;16.998;2023-04-03T07:01:32;3.90;99.90
2907;DHT22;1463;51.070;16.998;2023-04-03T07:03:59;4.10;99.90
2907;DHT22;1463;51.070;16.998;2023-04-03T07:06:27;4.10;99.90
2907;DHT22;1463;51.070;16.998;2023-04-03T07:08:55;4.20;99.90
2907;DHT22;1463;51.070;16.998;2023-04-03T07:11:22;4.30;99.90
2907;DHT22;1463;51.070;16.998;2023-04-03T07:13:50;4.50;99.90
2907;DHT22;1463;51.070;16.998;2023-04-03T07:16:19;4.50;99.90
2907;DHT22;1463;51.070;16.998;2023-04-03T07:18:47;4.50;99.90
2907;DHT22;1463;51.070;16.998;2023-04-03T07:21:15;4.50;99.90
2907;DHT22;1463;51.070;16.998;2023-04-03T07:23:42;4.70;99.90
2907;DHT22;1463;51.070;16.998;2023-04-03T07:26:10;4.80;99.90
2907;DHT22;1463;51.070;16.998;2023-04-03T07:28:37;4.90;99.90
2907;DHT22;1463;51.070;16.998;2023-04-03T07:31:08;5.00;99.90
2907;DHT22;1463;51.070;16.998;2023-04-03T07:33:40;5.20;99.90
2907;DHT22;1463;51.070;16.998;2023-04-03T07:36:09;5.30;99.90
2907;DHT22;1463;51.070;16.998;2023-04-03T07:38:37;5.60;99.90
2907;DHT22;1463;51.070;16.998;2023-04-03T07:41:04;5.80;99.90
2907;DHT22;1463;51.070;16.998;2023-04-03T07:43:32;6.00;99.90
2907;DHT22;1463;51.070;16.998;2023-04-03T07:46:00;6.30;99.90
2907;DHT22;1463;51.070;16.998;2023-04-03T07:48:28;6.40;99.90
2907;DHT22;1463;51.070;16.998;2023-04-03T07:51:01;6.50;99.90
2907;DHT22;1463;51.070;16.998;2023-04-03T07:53:29;6.40;99.90
2907;DHT22;1463;51.070;16.998;2023-04-03T07:55:59;6.30;99.90
2907;DHT22;1463;51.070;16.998;2023-04-03T07:58:30;6.40;99.90
2907;DHT22;1463;51.070;16.998;2023-04-03T08:00:57;6.50;99.80
2907;DHT22;1463;51.070;16.998;2023-04-03T08:03:25;6.60;98.80
2907;DHT22;1463;51.070;16.998;2023-04-03T08:05:53;6.60;98.60
2907;DHT22;1463;51.070;16.998;2023-04-03T08:08:22;6.80;99.00
2907;DHT22;1463;51.070;16.998;2023-04-03T08:10:57;7.00;98.70
2907;DHT22;1463;51.070;16.998;2023-04-03T08:13:25;7.30;96.30
2907;DHT22;1463;51.070;16.998;2023-04-03T08:15:52;7.40;94.50
2907;DHT22;1463;51.070;16.998;2023-04-03T08:18:21;7.60;93.60
2907;DHT22;1463;51.070;16.998;2023-04-03T08:20:50;7.80;93.50
2907;DHT22;1463;51.070;16.998;2023-04-03T08:23:18;8.10;92.90
2907;DHT22;1463;51.070;16.998;2023-04-03T08:25:47;8.90;90.80
2907;DHT22;1463;51.070;16.998;2023-04-03T08:28:15;9.80;85.70
2907;DHT22;1463;51.070;16.998;2023-04-03T08:30:43;10.70;79.20
2907;DHT22;1463;51.070;16.998;2023-04-03T08:33:11;12.80;73.50
2907;DHT22;1463;51.070;16.998;2023-04-03T08:35:40;15.90;61.20
2907;DHT22;1463;51.070;16.998;2023-04-03T08:38:08;18.40;51.70
2907;DHT22;1463;51.070;16.998;2023-04-03T08:40:36;20.20;47.60
2907;DHT22;1463;51.070;16.998;2023-04-03T08:43:24;21.60;44.30
2907;DHT22;1463;51.070;16.998;2023-04-03T08:45:56;22.50;40.30
2907;DHT22;1463;51.070;16.998;2023-04-03T08:48:29;21.40;40.60
2907;DHT22;1463;51.070;16.998;2023-04-03T08:51:02;22.50;40.20
2907;DHT22;1463;51.070;16.998;2023-04-03T08:53:34;23.70;39.10
2907;DHT22;1463;51.070;16.998;2023-04-03T08:56:05;23.00;37.70
2907;DHT22;1463;51.070;16.998;2023-04-03T08:58:41;21.00;38.80
2907;DHT22;1463;51.070;16.998;2023-04-03T09:01:18;18.80;39.60
2907;DHT22;1463;51.070;16.998;2023-04-03T09:03:46;16.30;40.80
2907;DHT22;1463;51.070;16.998;2023-04-03T09:06:17;14.00;43.10
2907;DHT22;1463;51.070;16.998;2023-04-03T09:08:51;14.30;44.70
2907;DHT22;1463;51.070;16.998;2023-04-03T09:11:24;14.60;44.10
2907;DHT22;1463;51.070;16.998;2023-04-03T09:13:59;14.20;46.00
2907;DHT22;1463;51.070;16.998;2023-04-03T09:16:47;17.20;44.30
2907;DHT22;1463;51.070;16.998;2023-04-03T09:19:22;17.80;40.90
2907;DHT22;1463;51.070;16.998;2023-04-03T09:21:53;18.70;40.10
2907;DHT22;1463;51.070;16.998;2023-04-03T09:24:23;17.60;39.70
2907;DHT22;1463;51.070;16.998;2023-04-03T09:26:54;17.90;40.30
2907;DHT22;1463;51.070;16.998;2023-04-03T09:29:28;16.50;39.60
2907;DHT22;1463;51.070;16.998;2023-04-03T09:31:59;14.70;42.50
2907;DHT22;1463;51.070;16.998;2023-04-03T09:34:31;12.70;41.30
2907;DHT22;1463;51.070;16.998;2023-04-03T09:37:01;11.40;43.80
2907;DHT22;1463;51.070;16.998;2023-04-03T09:39:33;10.10;44.40
2907;DHT22;1463;51.070;16.998;2023-04-03T09:42:19;9.50;45.20
2907;DHT22;1463;51.070;16.998;2023-04-03T09:44:54;11.20;44.30
2907;DHT22;1463;51.070;16.998;2023-04-03T09:47:25;9.90;43.90
2907;DHT22;1463;51.070;16.998;2023-04-03T09:50:15;9.20;45.60
2907;DHT22;1463;51.070;16.998;2023-04-03T09:52:47;8.90;46.20
2907;DHT22;1463;51.070;16.998;2023-04-03T09:55:16;8.50;46.30
2907;DHT22;1463;51.070;16.998;2023-04-03T09:57:45;8.40;48.20
2907;DHT22;1463;51.070;16.998;2023-04-03T10:00:23;8.40;49.20
2907;DHT22;1463;51.070;16.998;2023-04-03T10:02:54;8.30;51.10
2907;DHT22;1463;51.070;16.998;2023-04-03T10:05:30;8.50;51.10
2907;DHT22;1463;51.070;16.998;2023-04-03T10:08:09;8.40;49.20
2907;DHT22;1463;51.070;16.998;2023-04-03T10:10:37;8.30;48.80
2907;DHT22;1463;51.070;16.998;2023-04-03T10:13:07;8.60;46.10
2907;DHT22;1463;51.070;16.998;2023-04-03T10:15:41;9.10;47.10
2907;DHT22;1463;51.070;16.998;2023-04-03T10:18:30;9.00;48.30
2907;DHT22;1463;51.070;16.998;2023-04-03T10:21:04;8.90;48.50
2907;DHT22;1463;51.070;16.998;2023-04-03T10:23:40;9.20;48.90
2907;DHT22;1463;51.070;16.998;2023-04-03T10:26:17;9.20;46.20
2907;DHT22;1463;51.070;16.998;2023-04-03T10:28:53;9.00;46.10
2907;DHT22;1463;51.070;16.998;2023-04-03T10:31:31;9.30;47.80
2907;DHT22;1463;51.070;16.998;2023-04-03T10:34:06;9.50;47.50
2907;DHT22;1463;51.070;16.998;2023-04-03T10:36:42;9.30;48.70
2907;DHT22;1463;51.070;16.998;2023-04-03T10:39:21;9.20;49.80
2907;DHT22;1463;51.070;16.998;2023-04-03T10:41:59;9.10;48.80
2907;DHT22;1463;51.070;16.998;2023-04-03T10:44:36;9.20;47.40
2907;DHT22;1463;51.070;16.998;2023-04-03T10:47:10;9.20;45.80
2907;DHT22;1463;51.070;16.998;2023-04-03T10:49:48;9.10;46.50
2907;DHT22;1463;51.070;16.998;2023-04-03T10:52:22;8.50;47.60
2907;DHT22;1463;51.070;16.998;2023-04-03T10:55:00;8.10;48.40
2907;DHT22;1463;51.070;16.998;2023-04-03T10:57:30;7.60;48.10
2907;DHT22;1463;51.070;16.998;2023-04-03T11:00:00;7.50;48.20
2907;DHT22;1463;51.070;16.998;2023-04-03T11:02:32;7.90;48.40
2907;DHT22;1463;51.070;16.998;2023-04-03T11:05:03;7.90;47.70
2907;DHT22;1463;51.070;16.998;2023-04-03T11:07:34;7.90;48.50
2907;DHT22;1463;51.070;16.998;2023-04-03T11:10:10;7.60;49.30
2907;DHT22;1463;51.070;16.998;2023-04-03T11:12:43;7.50;50.10
2907;DHT22;1463;51.070;16.998;2023-04-03T11:15:15;7.40;49.30
2907;DHT22;1463;51.070;16.998;2023-04-03T11:17:47;7.30;50.00
2907;DHT22;1463;51.070;16.998;2023-04-03T11:20:18;7.60;51.20
2907;DHT22;1463;51.070;16.998;2023-04-03T11:22:50;7.70;51.30
2907;DHT22;1463;51.070;16.998;2023-04-03T11:25:21;7.70;50.90
2907;DHT22;1463;51.070;16.998;2023-04-03T11:27:54;7.60;51.20
2907;DHT22;1463;51.070;16.998;2023-04-03T11:30:26;7.60;51.30
2907;DHT22;1463;51.070;16.998;2023-04-03T11:33:05;7.60;51.60
2907;DHT22;1463;51.070;16.998;2023-04-03T11:35:36;7.80;52.00
2907;DHT22;1463;51.070;16.998;2023-04-03T11:38:05;8.30;51.70
2907;DHT22;1463;51.070;16.998;2023-04-03T11:40:35;8.90;51.60
2907;DHT22;1463;51.070;16.998;2023-04-03T11:43:07;9.00;49.50
2907;DHT22;1463;51.070;16.998;2023-04-03T11:45:53;8.70;49.10
2907;DHT22;1463;51.070;16.998;2023-04-03T11:48:51;8.40;48.20
2907;DHT22;1463;51.070;16.998;2023-04-03T11:51:52;8.40;47.40
2907;DHT22;1463;51.070;16.998;2023-04-03T11:54:43;8.60;47.90
2907;DHT22;1463;51.070;16.998;2023-04-03T11:57:44;9.00;49.60
2907;DHT22;1463;51.070;16.998;2023-04-03T12:00:48;8.90;46.20
2907;DHT22;1463;51.070;16.998;2023-04-03T12:04:04;8.80;46.90
2907;DHT22;1463;51.070;16.998;2023-04-03T12:09:56;9.30;46.30
2907;DHT22;1463;51.070;16.998;2023-04-03T12:12:37;9.60;45.60
2907;DHT22;1463;51.070;16.998;2023-04-03T12:18:40;9.00;46.60
2907;DHT22;1463;51.070;16.998;2023-04-03T12:21:10;8.70;46.70
2907;DHT22;1463;51.070;16.998;2023-04-03T12:24:03;8.30;45.90
2907;DHT22;1463;51.070;16.998;2023-04-03T12:26:36;8.20;46.70
2907;DHT22;1463;51.070;16.998;2023-04-03T12:29:15;8.70;46.90
2907;DHT22;1463;51.070;16.998;2023-04-03T12:31:55;9.00;46.50
2907;DHT22;1463;51.070;16.998;2023-04-03T12:34:41;9.10;47.20
2907;DHT22;1463;51.070;16.998;2023-04-03T12:37:23;8.80;44.80
2907;DHT22;1463;51.070;16.998;2023-04-03T12:40:05;8.20;44.80
2907;DHT22;1463;51.070;16.998;2023-04-03T12:43:10;8.40;46.10
2907;DHT22;1463;51.070;16.998;2023-04-03T12:45:46;8.80;47.30
2907;DHT22;1463;51.070;16.998;2023-04-03T12:48:15;8.70;45.20
2907;DHT22;1463;51.070;16.998;2023-04-03T12:50:46;8.50;47.20
2907;DHT22;1463;51.070;16.998;2023-04-03T12:53:19;8.30;48.60
2907;DHT22;1463;51.070;16.998;2023-04-03T12:55:53;8.20;49.00
2907;DHT22;1463;51.070;16.998;2023-04-03T12:58:24;8.20;48.30
2907;DHT22;1463;51.070;16.998;2023-04-03T13:01:00;8.20;47.40
2907;DHT22;1463;51.070;16.998;2023-04-03T13:03:28;8.20;46.50
2907;DHT22;1463;51.070;16.998;2023-04-03T13:05:59;8.40;46.00
2907;DHT22;1463;51.070;16.998;2023-04-03T13:08:30;8.80;47.40
2907;DHT22;1463;51.070;16.998;2023-04-03T13:11:01;9.10;48.20
2907;DHT22;1463;51.070;16.998;2023-04-03T13:13:29;9.00;47.30
2907;DHT22;1463;51.070;16.998;2023-04-03T13:15:58;8.60;46.50
2907;DHT22;1463;51.070;16.998;2023-04-03T13:18:30;8.30;47.40
2907;DHT22;1463;51.070;16.998;2023-04-03T13:21:03;8.30;48.20
2907;DHT22;1463;51.070;16.998;2023-04-03T13:23:35;8.60;46.90
2907;DHT22;1463;51.070;16.998;2023-04-03T13:26:04;8.70;45.80
2907;DHT22;1463;51.070;16.998;2023-04-03T13:28:33;9.00;45.80
2907;DHT22;1463;51.070;16.998;2023-04-03T13:31:05;9.10;46.50
2907;DHT22;1463;51.070;16.998;2023-04-03T13:33:35;9.30;46.20
2907;DHT22;1463;51.070;16.998;2023-04-03T13:36:06;9.10;46.00
2907;DHT22;1463;51.070;16.998;2023-04-03T13:38:36;9.00;47.00
2907;DHT22;1463;51.070;16.998;2023-04-03T13:41:21;8.80;46.60
2907;DHT22;1463;51.070;16.998;2023-04-03T13:43:50;8.60;46.40
2907;DHT22;1463;51.070;16.998;2023-04-03T13:46:24;8.40;47.00
2907;DHT22;1463;51.070;16.998;2023-04-03T13:48:54;8.20;46.90
2907;DHT22;1463;51.070;16.998;2023-04-03T13:51:26;8.20;46.20
2907;DHT22;1463;51.070;16.998;2023-04-03T13:53:57;8.10;44.80
2907;DHT22;1463;51.070;16.998;2023-04-03T13:56:31;8.10;44.80
2907;DHT22;1463;51.070;16.998;2023-04-03T13:59:19;8.20;45.40
2907;DHT22;1463;51.070;16.998;2023-04-03T14:01:52;8.30;46.60
2907;DHT22;1463;51.070;16.998;2023-04-03T14:04:22;8.40;47.60
2907;DHT22;1463;51.070;16.998;2023-04-03T14:06:53;8.50;47.30
2907;DHT22;1463;51.070;16.998;2023-04-03T14:09:24;8.50;46.40
2907;DHT22;1463;51.070;16.998;2023-04-03T14:11:54;8.40;46.70
2907;DHT22;1463;51.070;16.998;2023-04-03T14:17:47;8.30;46.40
2907;DHT22;1463;51.070;16.998;2023-04-03T14:20:18;8.20;46.50
2907;DHT22;1463;51.070;16.998;2023-04-03T14:22:48;8.20;46.40
2907;DHT22;1463;51.070;16.998;2023-04-03T14:25:19;8.00;46.00
2907;DHT22;1463;51.070;16.998;2023-04-03T14:27:50;8.10;47.20
2907;DHT22;1463;51.070;16.998;2023-04-03T14:30:20;8.20;47.30
2907;DHT22;1463;51.070;16.998;2023-04-03T14:32:48;8.20;46.70
2907;DHT22;1463;51.070;16.998;2023-04-03T14:35:17;8.10;46.30
2907;DHT22;1463;51.070;16.998;2023-04-03T14:37:47;8.00;47.50
2907;DHT22;1463;51.070;16.998;2023-04-03T14:40:20;8.00;46.90
2907;DHT22;1463;51.070;16.998;2023-04-03T14:42:47;8.20;46.10
2907;DHT22;1463;51.070;16.998;2023-04-03T14:45:16;8.10;44.00
2907;DHT22;1463;51.070;16.998;2023-04-03T14:47:47;8.00;44.20
2907;DHT22;1463;51.070;16.998;2023-04-03T14:50:17;7.90;44.30
2907;DHT22;1463;51.070;16.998;2023-04-03T14:52:50;7.70;44.80
2907;DHT22;1463;51.070;16.998;2023-04-03T14:55:23;7.80;46.20
2907;DHT22;1463;51.070;16.998;2023-04-03T14:57:53;8.10;45.80
2907;DHT22;1463;51.070;16.998;2023-04-03T15:00:22;8.40;45.60
2907;DHT22;1463;51.070;16.998;2023-04-03T15:02:49;8.40;45.80
2907;DHT22;1463;51.070;16.998;2023-04-03T15:05:20;8.30;44.50
2907;DHT22;1463;51.070;16.998;2023-04-03T15:07:50;8.00;44.40
2907;DHT22;1463;51.070;16.998;2023-04-03T15:10:22;7.80;45.50
2907;DHT22;1463;51.070;16.998;2023-04-03T15:12:50;7.60;45.90
2907;DHT22;1463;51.070;16.998;2023-04-03T15:15:20;7.50;46.00
2907;DHT22;1463;51.070;16.998;2023-04-03T15:17:51;7.40;46.40
2907;DHT22;1463;51.070;16.998;2023-04-03T15:20:21;7.30;46.20
2907;DHT22;1463;51.070;16.998;2023-04-03T15:22:49;7.30;46.70
2907;DHT22;1463;51.070;16.998;2023-04-03T15:25:19;7.30;46.60
2907;DHT22;1463;51.070;16.998;2023-04-03T15:27:50;7.40;46.20
2907;DHT22;1463;51.070;16.998;2023-04-03T15:30:18;7.30;46.20
2907;DHT22;1463;51.070;16.998;2023-04-03T15:32:46;7.30;46.60
2907;DHT22;1463;51.070;16.998;2023-04-03T15:35:14;7.30;47.00
2907;DHT22;1463;51.070;16.998;2023-04-03T15:37:41;7.40;47.00
2907;DHT22;1463;51.070;16.998;2023-04-03T15:40:10;7.40;48.00
2907;DHT22;1463;51.070;16.998;2023-04-03T15:42:38;7.40;47.50
2907;DHT22;1463;51.070;16.998;2023-04-03T15:45:08;7.30;47.70
2907;DHT22;1463;51.070;16.998;2023-04-03T15:47:36;7.30;48.00
2907;DHT22;1463;51.070;16.998;2023-04-03T15:50:05;7.30;48.10
2907;DHT22;1463;51.070;16.998;2023-04-03T15:52:33;7.40;48.60
2907;DHT22;1463;51.070;16.998;2023-04-03T15:55:01;7.40;49.30
2907;DHT22;1463;51.070;16.998;2023-04-03T15:57:29;7.40;49.60
2907;DHT22;1463;51.070;16.998;2023-04-03T15:59:56;7.40;49.80
2907;DHT22;1463;51.070;16.998;2023-04-03T16:02:25;7.30;50.30
2907;DHT22;1463;51.070;16.998;2023-04-03T16:04:54;7.20;50.70
2907;DHT22;1463;51.070;16.998;2023-04-03T16:07:21;7.30;50.30
2907;DHT22;1463;51.070;16.998;2023-04-03T16:09:49;7.30;50.50
2907;DHT22;1463;51.070;16.998;2023-04-03T16:12:16;7.40;50.00
2907;DHT22;1463;51.070;16.998;2023-04-03T16:14:44;7.40;50.10
2907;DHT22;1463;51.070;16.998;2023-04-03T16:17:11;7.40;50.00
2907;DHT22;1463;51.070;16.998;2023-04-03T16:19:40;7.30;50.50
2907;DHT22;1463;51.070;16.998;2023-04-03T16:22:09;7.30;50.80
2907;DHT22;1463;51.070;16.998;2023-04-03T16:24:37;7.20;49.80
2907;DHT22;1463;51.070;16.998;2023-04-03T16:27:05;6.90;50.10
2907;DHT22;1463;51.070;16.998;2023-04-03T16:29:33;6.80;50.80
2907;DHT22;1463;51.070;16.998;2023-04-03T16:32:00;6.70;51.70
2907;DHT22;1463;51.070;16.998;2023-04-03T16:34:31;6.70;51.20
2907;DHT22;1463;51.070;16.998;2023-04-03T16:37:02;6.60;51.30